sensor_id;sensor_type;location;lat;lon;timestamp;pressure;altitude;pressure_sealevel;temperature;humidity
7441;BME280;29616;51.950;8.572;2023-05-22T00:00:42;99891.34;;;20.31;100.00
7441;BME280;29616;51.950;8.572;2023-05-22T00:03:12;99891.81;;;20.15;100.00
7441;BME280;29616;51.950;8.572;2023-05-22T00:05:42;99877.78;;;19.97;100.00
7441;BME280;29616;51.950;8.572;2023-05-22T00:08:13;99893.84;;;19.82;100.00
7441;BME280;29616;51.950;8.572;2023-05-22T00:10:45;99898.34;;;19.70;100.00
7441;BME280;29616;51.950;8.572;2023-05-22T00:13:15;99900.72;;;19.60;100.00
7441;BME280;29616;51.950;8.572;2023-05-22T00:15:45;99884.31;;;19.39;100.00
7441;BME280;29616;51.950;8.572;2023-05-22T00:18:15;99887.09;;;19.39;100.00
7441;BME280;29616;51.950;8.572;2023-05-22T00:20:46;99884.94;;;19.34;100.00
7441;BME280;29616;51.950;8.572;2023-05-22T00:23:18;99880.25;;;19.28;100.00
7441;BME280;29616;51.950;8.572;2023-05-22T00:25:50;99880.91;;;19.23;100.00
7441;BME280;29616;51.950;8.572;2023-05-22T00:28:20;99886.44;;;19.23;100.00
7441;BME280;29616;51.950;8.572;2023-05-22T00:30:51;99876.84;;;19.13;100.00
7441;BME280;29616;51.950;8.572;2023-05-22T00:33:20;99882.19;;;19.01;100.00
7441;BME280;29616;51.950;8.572;2023-05-22T00:35:50;99862.56;;;19.09;100.00
7441;BME280;29616;51.950;8.572;2023-05-22T00:38:30;99864.50;;;19.09;100.00
7441;BME280;29616;51.950;8.572;2023-05-22T00:40:59;99852.56;;;19.15;100.00
7441;BME280;29616;51.950;8.572;2023-05-22T00:43:30;99859.16;;;19.27;100.00
7441;BME280;29616;51.950;8.572;2023-05-22T00:46:00;99857.66;;;19.38;100.00
7441;BME280;29616;51.950;8.572;2023-05-22T00:48:30;99844.25;;;19.34;100.00
7441;BME280;29616;51.950;8.572;2023-05-22T00:50:59;99852.38;;;19.43;100.00
7441;BME280;29616;51.950;8.572;2023-05-22T00:53:30;99854.03;;;19.44;100.00
7441;BME280;29616;51.950;8.572;2023-05-22T00:55:59;99852.38;;;19.43;100.00
7441;BME280;29616;51.950;8.572;2023-05-22T00:58:29;99853.19;;;19.36;100.00
7441;BME280;29616;51.950;8.572;2023-05-22T01:00:58;99857.00;;;19.35;100.00
7441;BME280;29616;51.950;8.572;2023-05-22T01:03:28;99856.38;;;19.33;100.00
7441;BME280;29616;51.950;8.572;2023-05-22T01:05:59;99849.38;;;19.44;100.00
7441;BME280;29616;51.950;8.572;2023-05-22T01:08:29;99851.47;;;19.49;100.00
7441;BME280;29616;51.950;8.572;2023-05-22T01:11:04;99851.47;;;19.49;100.00
7441;BME280;29616;51.950;8.572;2023-05-22T01:13:44;99849.56;;;19.56;100.00
7441;BME280;29616;51.950;8.572;2023-05-22T01:16:23;99845.03;;;19.68;100.00
7441;BME280;29616;51.950;8.572;2023-05-22T01:19:08;99847.56;;;19.76;100.00
7441;BME280;29616;51.950;8.572;2023-05-22T01:21:46;99848.81;;;19.93;100.00
7441;BME280;29616;51.950;8.572;2023-05-22T01:24:52;99845.38;;;19.91;100.00
7441;BME280;29616;51.950;8.572;2023-05-22T01:27:54;99851.28;;;20.08;100.00
7441;BME280;29616;51.950;8.572;2023-05-22T01:30:51;99827.66;;;19.99;100.00
7441;BME280;29616;51.950;8.572;2023-05-22T01:33:29;99846.19;;;20.05;100.00
7441;BME280;29616;51.950;8.572;2023-05-22T01:36:01;99844.44;;;20.10;100.00
7441;BME280;29616;51.950;8.572;2023-05-22T01:38:37;99845.97;;;20.06;100.00
7441;BME280;29616;51.950;8.572;2023-05-22T01:41:06;99839.78;;;20.04;100.00
7441;BME280;29616;51.950;8.572;2023-05-22T01:43:36;99844.44;;;20.10;100.00
7441;BME280;29616;51.950;8.572;2023-05-22T01:46:07;99839.13;;;20.09;100.00
7441;BME280;29616;51.950;8.572;2023-05-22T01:48:37;99834.66;;;20.08;100.00
7441;BME280;29616;51.950;8.572;2023-05-22T01:51:12;99835.53;;;20.02;100.00
7441;BME280;29616;51.950;8.572;2023-05-22T01:53:50;99840.63;;;20.05;100.00
7441;BME280;29616;51.950;8.572;2023-05-22T01:56:28;99844.06;;;20.00;100.00
7441;BME280;29616;51.950;8.572;2023-05-22T01:59:08;99846.84;;;20.00;100.00
7441;BME280;29616;51.950;8.572;2023-05-22T02:01:39;99849.63;;;20.00;100.00
7441;BME280;29616;51.950;8.572;2023-05-22T02:04:11;99828.13;;;19.89;100.00
7441;BME280;29616;51.950;8.572;2023-05-22T02:06:43;99818.34;;;19.80;100.00
7441;BME280;29616;51.950;8.572;2023-05-22T02:09:15;99841.53;;;19.99;100.00
7441;BME280;29616;51.950;8.572;2023-05-22T02:11:46;99822.56;;;19.95;100.00
7441;BME280;29616;51.950;8.572;2023-05-22T02:14:17;99822.13;;;19.92;100.00
7441;BME280;29616;51.950;8.572;2023-05-22T02:16:49;99801.50;;;19.75;100.00
7441;BME280;29616;51.950;8.572;2023-05-22T02:19:17;99833.47;;;19.90;100.00
7441;BME280;29616;51.950;8.572;2023-05-22T02:21:49;99827.69;;;19.92;100.00
7441;BME280;29616;51.950;8.572;2023-05-22T02:24:20;99830.44;;;19.92;100.00
7441;BME280;29616;51.950;8.572;2023-05-22T02:26:53;99821.06;;;19.93;100.00
7441;BME280;29616;51.950;8.572;2023-05-22T02:29:22;99820.19;;;19.99;100.00
7441;BME280;29616;51.950;8.572;2023-05-22T02:31:54;99808.69;;;19.95;100.00
7441;BME280;29616;51.950;8.572;2023-05-22T02:34:25;99803.16;;;19.95;100.00
7441;BME280;29616;51.950;8.572;2023-05-22T02:36:54;99782.09;;;19.81;100.00
7441;BME280;29616;51.950;8.572;2023-05-22T02:39:25;99815.03;;;20.03;100.00
7441;BME280;29616;51.950;8.572;2023-05-22T02:41:55;99775.25;;;19.77;100.00
7441;BME280;29616;51.950;8.572;2023-05-22T02:44:25;99805.50;;;19.92;100.00
7441;BME280;29616;51.950;8.572;2023-05-22T02:46:55;99800.44;;;19.82;100.00
7441;BME280;29616;51.950;8.572;2023-05-22T02:49:25;99800.44;;;19.76;100.00
7441;BME280;29616;51.950;8.572;2023-05-22T02:51:55;99807.00;;;19.88;100.00
7441;BME280;29616;51.950;8.572;2023-05-22T02:54:25;99813.38;;;19.95;100.00
7441;BME280;29616;51.950;8.572;2023-05-22T02:56:55;99805.72;;;19.90;100.00
7441;BME280;29616;51.950;8.572;2023-05-22T02:59:23;99797.44;;;19.84;100.00
7441;BME280;29616;51.950;8.572;2023-05-22T03:01:52;99804.88;;;19.90;100.00
7441;BME280;29616;51.950;8.572;2023-05-22T03:04:24;99803.41;;;19.87;100.00
7441;BME280;29616;51.950;8.572;2023-05-22T03:06:54;99800.63;;;19.81;100.00
7441;BME280;29616;51.950;8.572;2023-05-22T03:09:25;99798.28;;;19.78;100.00
7441;BME280;29616;51.950;8.572;2023-05-22T03:11:57;99800.22;;;19.77;100.00
7441;BME280;29616;51.950;8.572;2023-05-22T03:14:29;99797.22;;;19.79;100.00
7441;BME280;29616;51.950;8.572;2023-05-22T03:17:01;99793.41;;;19.80;100.00
7441;BME280;29616;51.950;8.572;2023-05-22T03:19:32;99789.13;;;19.77;100.00
7441;BME280;29616;51.950;8.572;2023-05-22T03:22:00;99801.97;;;19.72;100.00
7441;BME280;29616;51.950;8.572;2023-05-22T03:24:31;99794.28;;;19.67;100.00
7441;BME280;29616;51.950;8.572;2023-05-22T03:27:00;99793.00;;;19.70;100.00
7441;BME280;29616;51.950;8.572;2023-05-22T03:29:35;99788.53;;;19.69;100.00
7441;BME280;29616;51.950;8.572;2023-05-22T03:32:05;99793.66;;;19.72;100.00
7441;BME280;29616;51.950;8.572;2023-05-22T03:34:35;99789.16;;;19.64;100.00
7441;BME280;29616;51.950;8.572;2023-05-22T03:37:07;99782.81;;;19.64;100.00
7441;BME280;29616;51.950;8.572;2023-05-22T03:39:36;99788.09;;;19.72;100.00
7441;BME280;29616;51.950;8.572;2023-05-22T03:42:17;99789.16;;;19.71;100.00
7441;BME280;29616;51.950;8.572;2023-05-22T03:44:46;99785.34;;;19.72;100.00
7441;BME280;29616;51.950;8.572;2023-05-22T03:47:18;99798.53;;;19.70;100.00
7441;BME280;29616;51.950;8.572;2023-05-22T03:49:49;99793.00;;;19.70;100.00
7441;BME280;29616;51.950;8.572;2023-05-22T03:52:18;99791.75;;;19.66;100.00
7441;BME280;29616;51.950;8.572;2023-05-22T03:54:48;99789.16;;;19.71;100.00
7441;BME280;29616;51.950;8.572;2023-05-22T03:57:18;99784.47;;;19.71;100.00
7441;BME280;29616;51.950;8.572;2023-05-22T03:59:48;99784.66;;;19.76;100.00
7441;BME280;29616;51.950;8.572;2023-05-22T04:02:17;99775.97;;;19.66;100.00
7441;BME280;29616;51.950;8.572;2023-05-22T04:04:49;99782.31;;;19.73;100.00
7441;BME280;29616;51.950;8.572;2023-05-22T04:07:18;99774.69;;;19.69;100.00
7441;BME280;29616;51.950;8.572;2023-05-22T04:09:47;99784.44;;;19.78;100.00
7441;BME280;29616;51.950;8.572;2023-05-22T04:12:16;99787.63;;;19.75;100.00
7441;BME280;29616;51.950;8.572;2023-05-22T04:14:48;99778.88;;;19.78;100.00
7441;BME280;29616;51.950;8.572;2023-05-22T04:17:17;99786.59;;;19.69;100.00
7441;BME280;29616;51.950;8.572;2023-05-22T04:19:49;99782.31;;;19.73;100.00
7441;BME280;29616;51.950;8.572;2023-05-22T04:22:18;99778.88;;;19.78;100.00
7441;BME280;29616;51.950;8.572;2023-05-22T04:24:47;99764.84;;;19.73;100.00
7441;BME280;29616;51.950;8.572;2023-05-22T04:27:17;99774.44;;;19.77;100.00
7441;BME280;29616;51.950;8.572;2023-05-22T04:29:49;99783.56;;;19.84;100.00
7441;BME280;29616;51.950;8.572;2023-05-22T04:32:19;99792.06;;;19.89;100.00
7441;BME280;29616;51.950;8.572;2023-05-22T04:34:52;99794.63;;;19.90;100.00
7441;BME280;29616;51.950;8.572;2023-05-22T04:37:22;99799.53;;;19.88;100.00
7441;BME280;29616;51.950;8.572;2023-05-22T04:39:52;99803.97;;;19.96;100.00
7441;BME280;29616;51.950;8.572;2023-05-22T04:42:25;99805.06;;;19.95;100.00
7441;BME280;29616;51.950;8.572;2023-05-22T04:44:54;99806.50;;;20.04;100.00
7441;BME280;29616;51.950;8.572;2023-05-22T04:47:26;99805.63;;;20.10;100.00
7441;BME280;29616;51.950;8.572;2023-05-22T04:49:56;99786.25;;;20.04;100.00
7441;BME280;29616;51.950;8.572;2023-05-22T04:52:27;99800.06;;;20.10;100.00
7441;BME280;29616;51.950;8.572;2023-05-22T04:54:58;99805.19;;;20.13;100.00
7441;BME280;29616;51.950;8.572;2023-05-22T04:57:33;99810.31;;;20.10;100.00
7441;BME280;29616;51.950;8.572;2023-05-22T05:00:02;99814.13;;;20.15;100.00
7441;BME280;29616;51.950;8.572;2023-05-22T05:02:37;99803.47;;;20.12;100.00
7441;BME280;29616;51.950;8.572;2023-05-22T05:05:09;99805.16;;;20.20;100.00
7441;BME280;29616;51.950;8.572;2023-05-22T05:07:38;99806.41;;;20.17;100.00
7441;BME280;29616;51.950;8.572;2023-05-22T05:10:10;99807.69;;;20.21;100.00
7441;BME280;29616;51.950;8.572;2023-05-22T05:12:41;99798.53;;;20.27;100.00
7441;BME280;29616;51.950;8.572;2023-05-22T05:15:11;99784.63;;;20.21;100.00
7441;BME280;29616;51.950;8.572;2023-05-22T05:17:39;99791.00;;;20.34;100.00
7441;BME280;29616;51.950;8.572;2023-05-22T05:20:12;99796.03;;;20.44;100.00
7441;BME280;29616;51.950;8.572;2023-05-22T05:22:44;99787.44;;;20.52;100.00
7441;BME280;29616;51.950;8.572;2023-05-22T05:25:14;99783.38;;;20.54;100.00
7441;BME280;29616;51.950;8.572;2023-05-22T05:27:44;99795.22;;;20.68;100.00
7441;BME280;29616;51.950;8.572;2023-05-22T05:30:13;99785.59;;;20.71;100.00
7441;BME280;29616;51.950;8.572;2023-05-22T05:33:15;99786.59;;;20.83;100.00
7441;BME280;29616;51.950;8.572;2023-05-22T05:36:00;99789.69;;;20.93;100.00
7441;BME280;29616;51.950;8.572;2023-05-22T05:38:31;99775.03;;;20.86;100.00
7441;BME280;29616;51.950;8.572;2023-05-22T05:41:00;99795.22;;;20.99;100.00
7441;BME280;29616;51.950;8.572;2023-05-22T05:43:30;99796.88;;;21.07;100.00
7441;BME280;29616;51.950;8.572;2023-05-22T05:46:03;99798.50;;;21.14;100.00
7441;BME280;29616;51.950;8.572;2023-05-22T05:48:34;99789.13;;;21.34;100.00
7441;BME280;29616;51.950;8.572;2023-05-22T05:51:06;99783.56;;;21.52;100.00
7441;BME280;29616;51.950;8.572;2023-05-22T05:53:38;99801.72;;;21.72;100.00
7441;BME280;29616;51.950;8.572;2023-05-22T05:56:10;99801.53;;;21.92;100.00
7441;BME280;29616;51.950;8.572;2023-05-22T05:58:40;99797.97;;;22.03;100.00
7441;BME280;29616;51.950;8.572;2023-05-22T06:01:47;99794.06;;;22.04;100.00
7441;BME280;29616;51.950;8.572;2023-05-22T06:04:24;99795.81;;;22.17;100.00
7441;BME280;29616;51.950;8.572;2023-05-22T06:06:56;99792.56;;;22.38;100.00
7441;BME280;29616;51.950;8.572;2023-05-22T06:09:34;99794.22;;;22.39;100.00
7441;BME280;29616;51.950;8.572;2023-05-22T06:12:16;99802.31;;;22.29;100.00
7441;BME280;29616;51.950;8.572;2023-05-22T06:14:45;99771.59;;;22.06;100.00
7441;BME280;29616;51.950;8.572;2023-05-22T06:17:15;99802.31;;;22.29;100.00
7441;BME280;29616;51.950;8.572;2023-05-22T06:19:45;99782.75;;;22.17;100.00
7441;BME280;29616;51.950;8.572;2023-05-22T06:22:17;99788.78;;;22.14;100.00
7441;BME280;29616;51.950;8.572;2023-05-22T06:24:49;99791.44;;;22.09;100.00
7441;BME280;29616;51.950;8.572;2023-05-22T06:27:22;99798.19;;;22.02;100.00
7441;BME280;29616;51.950;8.572;2023-05-22T06:29:53;99778.31;;;21.98;100.00
7441;BME280;29616;51.950;8.572;2023-05-22T06:32:27;99788.44;;;22.11;100.00
7441;BME280;29616;51.950;8.572;2023-05-22T06:34:57;99788.72;;;22.21;100.00
7441;BME280;29616;51.950;8.572;2023-05-22T06:37:28;99794.34;;;22.44;100.00
7441;BME280;29616;51.950;8.572;2023-05-22T06:40:00;99798.91;;;22.57;100.00
7441;BME280;29616;51.950;8.572;2023-05-22T06:42:38;99799.50;;;22.59;100.00
7441;BME280;29616;51.950;8.572;2023-05-22T06:45:21;99801.53;;;22.81;100.00
7441;BME280;29616;51.950;8.572;2023-05-22T06:48:10;99782.91;;;22.93;100.00
7441;BME280;29616;51.950;8.572;2023-05-22T06:50:54;99801.91;;;22.85;100.00
7441;BME280;29616;51.950;8.572;2023-05-22T06:53:26;99797.19;;;22.85;100.00
7441;BME280;29616;51.950;8.572;2023-05-22T06:55:57;99784.47;;;22.89;100.00
7441;BME280;29616;51.950;8.572;2023-05-22T06:58:38;99800.97;;;23.26;100.00
7441;BME280;29616;51.950;8.572;2023-05-22T07:01:09;99789.25;;;23.47;100.00
7441;BME280;29616;51.950;8.572;2023-05-22T07:03:45;99800.91;;;23.95;100.00
7441;BME280;29616;51.950;8.572;2023-05-22T07:06:45;99794.69;;;24.45;100.00
7441;BME280;29616;51.950;8.572;2023-05-22T07:09:18;99794.91;;;24.27;100.00
7441;BME280;29616;51.950;8.572;2023-05-22T07:11:49;99800.63;;;24.48;100.00
7441;BME280;29616;51.950;8.572;2023-05-22T07:14:20;99762.72;;;24.52;100.00
7441;BME280;29616;51.950;8.572;2023-05-22T07:16:50;99803.63;;;24.75;100.00
7441;BME280;29616;51.950;8.572;2023-05-22T07:19:25;99800.72;;;24.53;100.00
7441;BME280;29616;51.950;8.572;2023-05-22T07:21:57;99788.56;;;24.76;100.00
7441;BME280;29616;51.950;8.572;2023-05-22T07:24:31;99779.41;;;24.64;100.00
7441;BME280;29616;51.950;8.572;2023-05-22T07:27:00;99798.97;;;25.25;100.00
7441;BME280;29616;51.950;8.572;2023-05-22T07:29:32;99803.16;;;25.45;100.00
7441;BME280;29616;51.950;8.572;2023-05-22T07:32:03;99800.63;;;26.20;100.00
7441;BME280;29616;51.950;8.572;2023-05-22T07:34:35;99798.47;;;26.54;100.00
7441;BME280;29616;51.950;8.572;2023-05-22T07:37:07;99809.22;;;26.62;100.00
7441;BME280;29616;51.950;8.572;2023-05-22T07:39:39;99800.25;;;26.38;100.00
7441;BME280;29616;51.950;8.572;2023-05-22T07:42:09;99791.09;;;26.42;100.00
7441;BME280;29616;51.950;8.572;2023-05-22T07:44:52;99816.22;;;26.86;100.00
7441;BME280;29616;51.950;8.572;2023-05-22T07:47:21;99814.19;;;26.55;100.00
7441;BME280;29616;51.950;8.572;2023-05-22T07:49:51;99809.09;;;26.52;100.00
7441;BME280;29616;51.950;8.572;2023-05-22T07:52:21;99799.09;;;27.14;100.00
7441;BME280;29616;51.950;8.572;2023-05-22T07:54:53;99813.66;;;27.11;100.00
7441;BME280;29616;51.950;8.572;2023-05-22T07:57:24;99815.44;;;27.22;100.00
7441;BME280;29616;51.950;8.572;2023-05-22T07:59:54;99807.06;;;27.64;100.00
7441;BME280;29616;51.950;8.572;2023-05-22T08:02:22;99821.81;;;26.86;100.00
7441;BME280;29616;51.950;8.572;2023-05-22T08:04:51;99823.16;;;26.57;100.00
7441;BME280;29616;51.950;8.572;2023-05-22T08:07:23;99824.34;;;27.14;100.00
7441;BME280;29616;51.950;8.572;2023-05-22T08:09:52;99808.59;;;27.40;100.00
7441;BME280;29616;51.950;8.572;2023-05-22T08:12:22;99807.00;;;27.17;100.00
7441;BME280;29616;51.950;8.572;2023-05-22T08:14:52;99819.06;;;26.91;100.00
7441;BME280;29616;51.950;8.572;2023-05-22T08:17:22;99815.09;;;27.14;100.00
7441;BME280;29616;51.950;8.572;2023-05-22T08:19:51;99817.81;;;28.29;100.00
7441;BME280;29616;51.950;8.572;2023-05-22T08:22:21;99816.84;;;28.70;100.00
7441;BME280;29616;51.950;8.572;2023-05-22T08:24:53;99822.84;;;29.34;100.00
7441;BME280;29616;51.950;8.572;2023-05-22T08:27:22;99828.69;;;29.98;100.00
7441;BME280;29616;51.950;8.572;2023-05-22T08:29:53;99796.56;;;30.05;95.48
7441;BME280;29616;51.950;8.572;2023-05-22T08:32:23;99825.38;;;29.46;97.07
7441;BME280;29616;51.950;8.572;2023-05-22T08:34:57;99813.47;;;28.01;100.00
7441;BME280;29616;51.950;8.572;2023-05-22T08:37:26;99818.22;;;28.01;100.00
7441;BME280;29616;51.950;8.572;2023-05-22T08:39:59;99820.69;;;28.44;100.00
7441;BME280;29616;51.950;8.572;2023-05-22T08:42:29;99819.38;;;28.72;100.00
7441;BME280;29616;51.950;8.572;2023-05-22T08:44:57;99828.47;;;29.44;93.87
7441;BME280;29616;51.950;8.572;2023-05-22T08:47:27;99804.78;;;29.71;97.85
7441;BME280;29616;51.950;8.572;2023-05-22T08:50:01;99799.38;;;30.05;94.57
7441;BME280;29616;51.950;8.572;2023-05-22T08:52:33;99814.59;;;29.78;91.44
7441;BME280;29616;51.950;8.572;2023-05-22T08:55:09;99818.09;;;30.44;88.11
7441;BME280;29616;51.950;8.572;2023-05-22T08:57:39;99808.00;;;30.28;93.42
7441;BME280;29616;51.950;8.572;2023-05-22T09:00:10;99812.53;;;30.78;90.29
7441;BME280;29616;51.950;8.572;2023-05-22T09:02:42;99812.50;;;30.83;85.81
7441;BME280;29616;51.950;8.572;2023-05-22T09:05:11;99809.78;;;30.68;89.47
7441;BME280;29616;51.950;8.572;2023-05-22T09:07:42;99810.59;;;30.69;84.35
7441;BME280;29616;51.950;8.572;2023-05-22T09:10:14;99806.88;;;30.83;83.44
7441;BME280;29616;51.950;8.572;2023-05-22T09:13:00;99792.00;;;30.09;88.64
7441;BME280;29616;51.950;8.572;2023-05-22T09:15:31;99796.31;;;30.60;91.08
7441;BME280;29616;51.950;8.572;2023-05-22T09:18:02;99811.13;;;31.19;84.22
7441;BME280;29616;51.950;8.572;2023-05-22T09:20:34;99822.19;;;31.50;82.08
7441;BME280;29616;51.950;8.572;2023-05-22T09:23:10;99809.97;;;31.83;82.26
7441;BME280;29616;51.950;8.572;2023-05-22T09:25:43;99807.59;;;31.95;80.91
7441;BME280;29616;51.950;8.572;2023-05-22T09:28:14;99802.75;;;32.24;77.96
7441;BME280;29616;51.950;8.572;2023-05-22T09:30:47;99815.03;;;31.86;76.00
7441;BME280;29616;51.950;8.572;2023-05-22T09:33:18;99794.84;;;31.74;77.80
7441;BME280;29616;51.950;8.572;2023-05-22T09:35:47;99808.09;;;32.26;74.03
7441;BME280;29616;51.950;8.572;2023-05-22T09:38:17;99814.25;;;32.52;73.31
7441;BME280;29616;51.950;8.572;2023-05-22T09:40:52;99801.66;;;32.20;81.16
7441;BME280;29616;51.950;8.572;2023-05-22T09:43:23;99816.06;;;32.66;72.66
7441;BME280;29616;51.950;8.572;2023-05-22T09:45:56;99814.31;;;32.70;70.60
7441;BME280;29616;51.950;8.572;2023-05-22T09:48:25;99814.59;;;31.74;74.79
7441;BME280;29616;51.950;8.572;2023-05-22T09:50:56;99814.84;;;31.44;76.16
7441;BME280;29616;51.950;8.572;2023-05-22T09:53:29;99811.25;;;31.72;75.63
7441;BME280;29616;51.950;8.572;2023-05-22T09:56:05;99801.56;;;31.78;73.64
7441;BME280;29616;51.950;8.572;2023-05-22T09:58:40;99809.28;;;31.96;73.98
7441;BME280;29616;51.950;8.572;2023-05-22T10:01:12;99809.53;;;31.71;78.49
7441;BME280;29616;51.950;8.572;2023-05-22T10:03:51;99810.69;;;32.22;77.06
7441;BME280;29616;51.950;8.572;2023-05-22T10:06:22;99801.81;;;32.90;73.22
7441;BME280;29616;51.950;8.572;2023-05-22T10:09:01;99804.81;;;32.37;71.09
7441;BME280;29616;51.950;8.572;2023-05-22T10:11:34;99805.63;;;32.19;75.21
7441;BME280;29616;51.950;8.572;2023-05-22T10:14:04;99800.94;;;32.33;69.65
7441;BME280;29616;51.950;8.572;2023-05-22T10:16:34;99781.00;;;32.01;72.55
7441;BME280;29616;51.950;8.572;2023-05-22T10:19:06;99798.78;;;32.25;75.51
7441;BME280;29616;51.950;8.572;2023-05-22T10:21:38;99809.16;;;32.54;76.98
7441;BME280;29616;51.950;8.572;2023-05-22T10:24:10;99807.19;;;32.54;73.46
7441;BME280;29616;51.950;8.572;2023-05-22T10:26:43;99809.00;;;32.64;75.45
7441;BME280;29616;51.950;8.572;2023-05-22T10:29:16;99803.31;;;32.45;72.40
7441;BME280;29616;51.950;8.572;2023-05-22T10:31:54;99813.00;;;33.00;70.66
7441;BME280;29616;51.950;8.572;2023-05-22T10:34:49;99799.06;;;33.22;68.64
7441;BME280;29616;51.950;8.572;2023-05-22T10:37:36;99797.13;;;32.43;73.46
7441;BME280;29616;51.950;8.572;2023-05-22T10:40:10;99797.47;;;32.36;77.91
7441;BME280;29616;51.950;8.572;2023-05-22T10:42:42;99794.66;;;32.36;79.67
7441;BME280;29616;51.950;8.572;2023-05-22T10:45:12;99781.81;;;32.68;75.51
7441;BME280;29616;51.950;8.572;2023-05-22T10:47:41;99788.09;;;31.70;81.51
7441;BME280;29616;51.950;8.572;2023-05-22T10:50:11;99777.19;;;31.30;84.09
7441;BME280;29616;51.950;8.572;2023-05-22T10:52:42;99783.34;;;31.89;78.18
7441;BME280;29616;51.950;8.572;2023-05-22T10:55:12;99781.53;;;32.03;79.11
7441;BME280;29616;51.950;8.572;2023-05-22T10:57:42;99788.19;;;32.36;77.58
7441;BME280;29616;51.950;8.572;2023-05-22T11:00:14;99788.16;;;32.17;75.56
7441;BME280;29616;51.950;8.572;2023-05-22T11:03:03;99774.41;;;32.29;81.70
7441;BME280;29616;51.950;8.572;2023-05-22T11:05:51;99789.16;;;32.45;76.71
7441;BME280;29616;51.950;8.572;2023-05-22T11:08:36;99788.81;;;31.80;81.50
7441;BME280;29616;51.950;8.572;2023-05-22T11:11:13;99773.06;;;32.03;81.81
7441;BME280;29616;51.950;8.572;2023-05-22T11:13:50;99782.66;;;32.45;80.46
7441;BME280;29616;51.950;8.572;2023-05-22T11:16:20;99786.34;;;32.45;73.87
7441;BME280;29616;51.950;8.572;2023-05-22T11:19:01;99775.81;;;32.51;74.29
7441;BME280;29616;51.950;8.572;2023-05-22T11:21:48;99785.00;;;32.61;76.92
7441;BME280;29616;51.950;8.572;2023-05-22T11:24:18;99783.72;;;32.72;77.02
7441;BME280;29616;51.950;8.572;2023-05-22T11:27:05;99764.47;;;33.25;72.91
7441;BME280;29616;51.950;8.572;2023-05-22T11:29:37;99777.97;;;32.59;73.74
7441;BME280;29616;51.950;8.572;2023-05-22T11:32:11;99775.41;;;32.62;77.82
7441;BME280;29616;51.950;8.572;2023-05-22T11:34:46;99779.59;;;32.83;73.88
7441;BME280;29616;51.950;8.572;2023-05-22T11:37:19;99773.69;;;33.17;74.66
7441;BME280;29616;51.950;8.572;2023-05-22T11:39:54;99770.09;;;33.12;73.05
7441;BME280;29616;51.950;8.572;2023-05-22T11:42:25;99763.47;;;33.48;77.04
7441;BME280;29616;51.950;8.572;2023-05-22T11:44:56;99747.53;;;33.98;71.69
7441;BME280;29616;51.950;8.572;2023-05-22T11:47:26;99747.19;;;34.00;69.95
7441;BME280;29616;51.950;8.572;2023-05-22T11:49:56;99745.53;;;33.72;68.73
7441;BME280;29616;51.950;8.572;2023-05-22T11:52:30;99724.03;;;33.38;70.80
7441;BME280;29616;51.950;8.572;2023-05-22T11:55:02;99748.75;;;33.65;74.25
7441;BME280;29616;51.950;8.572;2023-05-22T11:57:33;99749.50;;;33.71;74.59
7441;BME280;29616;51.950;8.572;2023-05-22T12:00:05;99738.38;;;33.61;79.76
7441;BME280;29616;51.950;8.572;2023-05-22T12:02:37;99746.06;;;33.41;75.41
7441;BME280;29616;51.950;8.572;2023-05-22T12:05:09;99728.09;;;34.05;70.02
7441;BME280;29616;51.950;8.572;2023-05-22T12:07:39;99725.16;;;33.97;72.18
7441;BME280;29616;51.950;8.572;2023-05-22T12:10:10;99714.25;;;34.18;72.71
7441;BME280;29616;51.950;8.572;2023-05-22T12:12:39;99723.47;;;34.23;71.78
7441;BME280;29616;51.950;8.572;2023-05-22T12:15:12;99727.53;;;34.44;67.02
7441;BME280;29616;51.950;8.572;2023-05-22T12:17:43;99720.84;;;33.86;70.13
7441;BME280;29616;51.950;8.572;2023-05-22T12:20:13;99724.50;;;34.41;69.98
7441;BME280;29616;51.950;8.572;2023-05-22T12:22:43;99714.19;;;34.58;67.59
7441;BME280;29616;51.950;8.572;2023-05-22T12:25:14;99727.22;;;34.59;66.96
7441;BME280;29616;51.950;8.572;2023-05-22T12:27:44;99730.97;;;34.68;69.52
7441;BME280;29616;51.950;8.572;2023-05-22T12:30:16;99723.88;;;34.80;71.56
7441;BME280;29616;51.950;8.572;2023-05-22T12:32:47;99728.22;;;35.21;68.98
7441;BME280;29616;51.950;8.572;2023-05-22T12:35:17;99713.94;;;35.57;71.88
7441;BME280;29616;51.950;8.572;2023-05-22T12:37:49;99728.50;;;35.11;69.60
7441;BME280;29616;51.950;8.572;2023-05-22T12:40:18;99709.34;;;35.48;65.30
7441;BME280;29616;51.950;8.572;2023-05-22T12:42:48;99733.03;;;35.12;70.22
7441;BME280;29616;51.950;8.572;2023-05-22T12:45:19;99728.06;;;35.49;64.58
7441;BME280;29616;51.950;8.572;2023-05-22T12:47:49;99733.50;;;34.70;66.58
7441;BME280;29616;51.950;8.572;2023-05-22T12:50:17;99729.69;;;35.63;65.45
7441;BME280;29616;51.950;8.572;2023-05-22T12:52:46;99735.06;;;34.98;68.01
7441;BME280;29616;51.950;8.572;2023-05-22T12:55:16;99730.69;;;33.75;71.43
7441;BME280;29616;51.950;8.572;2023-05-22T12:57:45;99729.47;;;33.21;72.08
7441;BME280;29616;51.950;8.572;2023-05-22T13:00:16;99736.63;;;32.63;78.65
7441;BME280;29616;51.950;8.572;2023-05-22T13:02:46;99724.91;;;32.69;78.04
7441;BME280;29616;51.950;8.572;2023-05-22T13:05:18;99726.72;;;34.03;71.64
7441;BME280;29616;51.950;8.572;2023-05-22T13:07:47;99729.44;;;34.85;69.92
7441;BME280;29616;51.950;8.572;2023-05-22T13:10:25;99714.00;;;35.44;69.87
7441;BME280;29616;51.950;8.572;2023-05-22T13:12:54;99725.78;;;35.90;66.82
7441;BME280;29616;51.950;8.572;2023-05-22T13:15:24;99708.69;;;35.81;65.89
7441;BME280;29616;51.950;8.572;2023-05-22T13:17:58;99713.84;;;34.60;71.88
7441;BME280;29616;51.950;8.572;2023-05-22T13:20:28;99716.72;;;34.46;72.87
7441;BME280;29616;51.950;8.572;2023-05-22T13:22:59;99722.97;;;34.70;77.55
7441;BME280;29616;51.950;8.572;2023-05-22T13:25:27;99719.25;;;32.88;88.30
7441;BME280;29616;51.950;8.572;2023-05-22T13:27:58;99707.19;;;33.15;92.80
7441;BME280;29616;51.950;8.572;2023-05-22T13:30:28;99708.25;;;33.92;88.58
7441;BME280;29616;51.950;8.572;2023-05-22T13:33:00;99717.50;;;33.24;92.04